Latest Weather Observations for Clare

IDS60801

Issued at 2:21 pm CST Monday 23 September 2019 (issued every 10 minutes, with the page automatically refreshed every 10 minutes)

About weather observations | Map of weather stations | Latest weather observations for SA | Other Formats
Station Details ID: 021131 Name: CLARE HIGH SCHOOL Lat: -33.82 Lon: 138.59 Height: 395.0 m
Data from the previous 72 hours. | See also: Recent months at Clare
Date/Time
CST
Temp
°C
App
Temp
°C
Dew
Point
°C
Rel
Hum
%
Delta-T
°C
Wind Press
QNH
hPa
Press
MSL
hPa
Rain since
9am
mm
Dir  Spd
km/h
Gust
km/h
Spd
kts
Gust
kts
23/02:00pm 13.2 9.5 4.4 55 4.1 SW 13 20 7 11 1029.3 1029.3 0.2
23/01:30pm 14.0 10.6 4.0 51 4.6 WSW 11 20 6 11 1029.5 1029.5 0.2
23/01:00pm 13.1 9.4 4.3 55 4.1 WSW 13 24 7 13 1029.4 1029.4 0.2
23/12:30pm 12.8 8.7 4.5 57 3.8 SSW 15 24 8 13 1029.6 1029.6 0.0
23/12:00pm 12.5 8.1 4.5 58 3.7 WSW 17 24 9 13 1029.7 1029.7 0.0
23/11:30am 12.8 9.1 4.5 57 3.8 WSW 13 22 7 12 1029.8 1029.8 0.0
23/11:00am 12.3 7.8 4.3 58 3.7 SW 17 26 9 14 1030.0 1030.0 0.0
23/10:30am 11.7 7.6 4.2 60 3.4 SW 15 24 8 13 1029.8 1029.8 0.0
23/10:00am 11.2 6.8 4.9 65 2.9 SSW 17 24 9 13 1029.9 1029.9 0.0
23/09:30am 10.3 6.4 5.5 72 2.2 SSW 15 26 8 14 1030.1 1030.1 0.0
23/09:00am 9.5 5.8 6.4 81 1.5 WSW 15 24 8 13 1030.4 1030.5 0.6
23/08:30am 9.4 6.1 6.5 82 1.4 W 13 22 7 12 1030.2 1030.3 0.6
23/08:00am 8.5 6.6 7.4 93 0.5 W 7 9 4 5 1030.0 1030.0 0.6
23/07:30am 7.3 5.5 7.2 99 0.0 WNW 6 13 3 7 1029.9 1029.9 0.6
23/07:00am 6.6 5.8 6.6 100 0.0 CALM 0 0 0 0 1029.5 1029.5 0.6
23/06:30am 5.6 4.6 5.6 100 0.0 CALM 0 0 0 0 1029.1 1029.1 0.6
23/06:00am 5.4 4.3 5.3 99 0.0 CALM 0 0 0 0 1028.8 1028.8 0.6
23/05:30am 5.8 4.8 5.7 99 0.0 CALM 0 0 0 0 1028.6 1028.6 0.6
23/05:00am 6.7 5.5 6.6 99 0.0 WNW 2 9 1 5 1028.2 1028.3 0.4
23/04:30am 6.9 5.0 6.9 100 0.0 WNW 6 9 3 5 1028.0 1028.1 0.4
23/04:00am 7.2 4.8 7.2 100 0.0 WNW 9 19 5 10 1027.6 1027.6 0.4
23/03:30am 7.3 5.5 7.3 100 0.0 WNW 6 11 3 6 1027.4 1027.4 0.4
23/03:00am 7.3 4.6 7.3 100 0.0 WNW 11 19 6 10 1027.3 1027.3 0.4
23/02:30am 7.4 4.7 7.4 100 0.0 WNW 11 19 6 10 1027.2 1027.2 0.4
23/02:00am 7.4 5.1 7.4 100 0.0 WNW 9 15 5 8 1027.2 1027.2 0.4
23/01:30am 7.3 4.2 7.3 100 0.0 WNW 13 22 7 12 1027.2 1027.2 0.4
23/01:00am 7.1 4.3 7.0 99 0.0 WNW 11 19 6 10 1027.1 1027.1 0.4
23/12:30am 7.2 3.7 7.1 99 0.0 WNW 15 30 8 16 1027.1 1027.1 0.4
23/12:00am 7.4 4.3 7.3 99 0.0 W 13 22 7 12 1026.9 1026.9 0.2
 
Date/Time
CST
Temp
°C
App
Temp
°C
Dew
Point
°C
Rel
Hum
%
Delta-T
°C
Wind Press
QNH
hPa
Press
MSL
hPa
Rain since
9am
mm
Dir  Spd
km/h
Gust
km/h
Spd
kts
Gust
kts
22/11:30pm 7.2 3.6 6.8 97 0.2 W 15 24 8 13 1026.7 1026.7 0.2
22/11:00pm 7.4 3.5 7.3 99 0.0 WSW 17 24 9 13 1026.7 1026.7 0.2
22/10:30pm 7.6 4.2 7.5 99 0.0 W 15 22 8 12 1026.7 1026.7 0.2
22/10:00pm 7.5 4.4 7.4 99 0.0 W 13 19 7 10 1026.8 1026.8 0.2
22/09:30pm 8.0 4.3 7.9 99 0.0 W 17 24 9 13 1026.8 1026.8 0.2
22/09:00pm 8.3 4.4 7.1 92 0.6 W 17 26 9 14 1026.6 1026.6 0.2
22/08:30pm 8.6 4.9 6.4 86 1.0 W 15 22 8 12 1026.3 1026.3 0.2
22/08:00pm 8.5 4.7 6.0 84 1.2 W 15 20 8 11 1026.2 1026.2 0.2
22/07:30pm 8.6 4.4 5.5 81 1.4 WNW 17 22 9 12 1025.7 1025.7 0.2
22/07:00pm 8.8 4.4 5.0 77 1.7 WNW 17 28 9 15 1025.5 1025.5 0.2
22/06:30pm 8.8 5.2 5.0 77 1.7 WNW 13 20 7 11 1025.3 1025.3 0.2
22/06:00pm 9.2 5.3 5.2 76 1.8 WNW 15 26 8 14 1025.0 1025.0 0.2
22/05:30pm 9.4 5.6 5.8 78 1.7 WNW 15 24 8 13 1025.0 1025.0 0.2
22/05:00pm 9.3 5.1 5.9 79 1.6 WNW 17 24 9 13 1024.8 1024.8 0.2
22/04:30pm 9.4 5.0 6.5 82 1.4 W 19 32 10 17 1024.5 1024.5 0.2
22/04:00pm 11.4 6.1 4.8 64 3.1 WNW 22 41 12 22 1024.3 1024.3 0.2
22/03:30pm 11.9 6.3 3.7 57 3.7 WNW 22 33 12 18 1024.0 1024.0 0.2
22/03:00pm 11.9 6.0 3.9 58 3.6 WNW 24 37 13 20 1024.0 1024.0 0.2
22/02:30pm 12.0 7.1 4.2 59 3.6 WNW 19 33 10 18 1024.1 1024.1 0.0
22/02:00pm 12.0 6.9 4.0 58 3.7 WNW 20 33 11 18 1024.3 1024.3 0.0
22/01:30pm 12.8 6.9 4.0 55 4.0 WNW 24 39 13 21 1024.6 1024.6 0.0
22/01:00pm 12.2 6.7 3.9 57 3.8 WNW 22 32 12 17 1024.9 1024.9 0.0
22/12:30pm 11.8 6.3 4.1 59 3.5 WNW 22 33 12 18 1025.0 1025.0 0.0
22/12:00pm 11.0 5.1 4.0 62 3.2 WNW 24 39 13 21 1025.3 1025.3 0.0
22/11:30am 10.9 5.9 6.3 73 2.2 NW 22 37 12 20 1025.5 1025.5 0.0
22/11:00am 9.8 5.0 5.6 75 2.0 NW 20 30 11 16 1025.7 1025.7 0.0
22/10:30am 10.0 5.2 5.4 73 2.1 WNW 20 32 11 17 1025.7 1025.7 0.0
22/10:00am 10.0 5.6 6.5 79 1.7 NW 19 32 10 17 1025.7 1025.7 0.0
22/09:30am 9.3 5.3 6.6 83 1.3 NW 17 32 9 17 1025.7 1025.7 0.0
22/09:00am 8.6 4.2 6.6 87 0.9 NW 19 26 10 14 1025.4 1025.4 3.8
22/08:30am 8.7 4.8 7.0 89 0.8 NW 17 26 9 14 1025.4 1025.4 3.8
22/08:00am 7.5 3.8 6.1 91 0.6 WNW 15 22 8 12 1025.3 1025.3 3.8
22/07:30am 6.5 4.3 6.4 99 0.0 NW 7 9 4 5 1025.0 1025.0 3.8
22/07:00am 4.6 3.4 4.6 100 0.0 CALM 0 0 0 0 1024.8 1024.8 3.8
22/06:30am 2.9 1.4 2.8 99 0.0 CALM 0 0 0 0 1024.5 1024.5 3.8
22/06:00am 3.5 2.1 3.5 100 0.0 CALM 0 0 0 0 1024.2 1024.2 3.8
22/05:30am 4.0 2.7 4.0 100 0.0 CALM 0 0 0 0 1023.8 1023.8 3.8
22/05:00am 4.0 2.7 3.9 99 0.0 CALM 0 0 0 0 1023.6 1023.5 3.8
22/04:30am 4.5 3.3 4.5 100 0.0 CALM 0 0 0 0 1023.3 1023.2 3.8
22/04:00am 4.9 3.8 4.9 100 0.0 CALM 0 0 0 0 1022.9 1022.9 3.8
22/03:30am 4.8 3.6 4.8 100 0.0 CALM 0 0 0 0 1022.8 1022.8 3.8
22/03:00am 4.7 3.5 4.6 99 0.0 CALM 0 0 0 0 1022.8 1022.8 3.8
22/02:30am 5.3 3.8 5.2 99 0.0 NNW 2 6 1 3 1022.8 1022.8 3.8
22/02:00am 5.6 4.6 5.5 99 0.0 CALM 0 6 0 3 1023.0 1023.0 3.8
22/01:30am 5.4 4.0 5.4 100 0.0 NW 2 7 1 4 1023.2 1023.1 3.8
22/01:00am 5.2 4.1 5.2 100 0.0 CALM 0 0 0 0 1023.5 1023.4 3.8
22/12:30am 4.9 3.8 4.9 100 0.0 CALM 0 0 0 0 1023.5 1023.4 3.8
22/12:00am 4.7 3.5 4.7 100 0.0 CALM 0 0 0 0 1023.6 1023.5 3.8
 
Date/Time
CST
Temp
°C
App
Temp
°C
Dew
Point
°C
Rel
Hum
%
Delta-T
°C
Wind Press
QNH
hPa
Press
MSL
hPa
Rain since
9am
mm
Dir  Spd
km/h
Gust
km/h
Spd
kts
Gust
kts
21/11:30pm 4.2 2.9 4.1 99 0.0 CALM 0 0 0 0 1023.5 1023.4 3.8
21/11:00pm 4.2 2.9 4.1 99 0.0 CALM 0 0 0 0 1023.4 1023.3 3.8
21/10:30pm 4.7 3.5 4.6 99 0.0 CALM 0 0 0 0 1023.3 1023.2 3.8
21/10:00pm 6.2 4.9 5.8 97 0.2 WNW 2 9 1 5 1023.2 1023.1 3.8
21/09:30pm 6.5 4.2 5.9 96 0.3 WNW 7 9 4 5 1023.2 1023.1 3.8
21/09:00pm 5.7 4.3 5.6 99 0.0 WNW 2 9 1 5 1023.0 1023.0 3.8
21/08:30pm 6.2 4.9 5.8 97 0.2 WNW 2 6 1 3 1022.8 1022.8 3.8
21/08:00pm 7.3 5.2 5.9 91 0.6 WNW 6 9 3 5 1022.7 1022.7 3.8
21/07:30pm 7.5 5.3 6.4 93 0.5 WNW 7 11 4 6 1022.5 1022.5 3.8
21/07:00pm 7.2 5.8 7.1 99 0.0 NW 4 6 2 3 1022.2 1022.2 3.8
21/06:30pm 7.5 5.9 6.4 93 0.5 W 4 9 2 5 1021.8 1021.8 3.8
21/06:00pm 7.8 4.7 5.6 86 1.0 W 11 19 6 10 1021.7 1021.7 3.6
21/05:30pm 9.3 5.6 4.5 72 2.2 W 13 24 7 13 1021.0 1020.9 3.2
21/05:00pm 10.0 5.9 4.2 67 2.6 W 15 28 8 15 1020.7 1020.6 3.2
21/04:30pm 9.4 5.5 5.4 76 1.8 W 15 26 8 14 1020.3 1020.3 3.2
21/04:00pm 10.6 6.6 4.9 68 2.6 WSW 15 28 8 15 1019.7 1019.7 3.2
21/03:30pm 10.3 7.8 6.6 78 1.8 W 9 17 5 9 1019.5 1019.5 3.2
21/03:00pm 9.2 7.3 7.6 90 0.8 SSW 7 11 4 6 1019.3 1019.2 3.2
21/02:30pm 10.0 7.6 6.9 81 1.5 SSW 9 13 5 7 1019.2 1019.1 1.4
21/02:00pm 9.5 5.6 6.9 84 1.2 SSW 17 24 9 13 1019.2 1019.1 0.6
21/01:30pm 10.7 7.5 6.8 77 1.9 W 13 20 7 11 1019.1 1019.0 0.4
21/01:00pm 9.9 5.8 6.3 78 1.7 W 17 26 9 14 1019.0 1018.9 0.2
21/12:30pm 9.6 5.6 4.8 72 2.2 SSW 15 28 8 15 1018.7 1018.6 0.2
21/12:00pm 11.1 7.0 4.6 64 3.0 SW 15 30 8 16 1018.5 1018.4 0.0
21/11:30am 10.4 5.9 4.3 66 2.8 SW 17 28 9 15 1018.2 1018.1 0.0
21/11:00am 10.5 6.3 5.9 73 2.2 SW 17 26 9 14 1017.9 1017.8 0.0
21/10:30am 10.9 6.5 6.5 74 2.1 SSW 19 37 10 20 1017.6 1017.6 0.0
21/10:00am 9.9 5.9 6.8 81 1.5 SW 17 28 9 15 1017.5 1017.5 0.0
21/09:30am 9.7 5.5 7.3 85 1.2 SW 19 33 10 18 1017.1 1017.0 0.0
21/09:00am 8.7 4.9 7.5 92 0.6 SW 17 30 9 16 1016.8 1016.7 -
21/08:30am 8.0 3.7 7.9 99 0.0 WSW 20 37 11 20 1016.5 1016.4 -
21/08:00am 7.6 3.4 7.6 100 0.0 W 19 30 10 16 1016.2 1016.1 -
21/07:30am 7.4 3.2 7.3 99 0.0 W 19 33 10 18 1015.9 1015.8 -
21/07:00am 6.9 2.6 6.9 100 0.0 WNW 19 28 10 15 1015.6 1015.5 -
21/06:30am 6.7 3.5 6.7 100 0.0 WNW 13 20 7 11 1014.9 1014.8 -
21/06:00am 6.6 3.3 6.6 100 0.0 W 13 19 7 10 1014.5 1014.4 -
21/05:30am 6.6 2.6 6.6 100 0.0 W 17 30 9 16 1014.2 1014.1 -
21/05:00am 6.8 3.6 6.8 100 0.0 W 13 28 7 15 1013.6 1013.5 -
21/04:30am 7.2 3.3 7.2 100 0.0 W 17 28 9 15 1013.2 1013.1 -
21/04:00am 7.3 3.4 7.3 100 0.0 W 17 28 9 15 1013.0 1012.9 -
21/03:30am 7.5 3.7 7.5 100 0.0 W 17 26 9 14 1013.0 1012.9 -
21/03:00am 7.7 4.3 7.7 100 0.0 W 15 26 8 14 1012.8 1012.6 -
21/02:30am 7.7 3.6 7.7 100 0.0 W 19 28 10 15 1012.7 1012.5 -
21/02:00am 7.6 4.2 7.6 100 0.0 WNW 15 28 8 15 1013.0 1012.9 -
21/01:30am 7.6 4.2 7.6 100 0.0 W 15 24 8 13 1013.2 1013.1 -
21/01:00am 7.4 4.3 7.4 100 0.0 W 13 20 7 11 1013.2 1013.1 -
21/12:30am 7.3 4.2 7.3 100 0.0 WSW 13 22 7 12 1013.4 1013.3 -
21/12:00am 7.4 4.3 7.4 100 0.0 W 13 22 7 12 1013.7 1013.6 -
 
Date/Time
CST
Temp
°C
App
Temp
°C
Dew
Point
°C
Rel
Hum
%
Delta-T
°C
Wind Press
QNH
hPa
Press
MSL
hPa
Rain since
9am
mm
Dir  Spd
km/h
Gust
km/h
Spd
kts
Gust
kts
20/11:30pm 7.5 3.7 7.5 100 0.0 WSW 17 26 9 14 1013.7 1013.6 -
20/11:00pm 7.4 3.0 7.4 100 0.0 WSW 20 30 11 16 1013.4 1013.3 -
20/10:30pm 8.4 5.2 8.4 100 0.0 WNW 15 22 8 12 1013.7 1013.6 -
20/10:00pm 8.2 5.3 8.2 100 0.0 WNW 13 20 7 11 1013.8 1013.7 -
20/09:30pm 8.1 6.0 8.1 100 0.0 WNW 9 17 5 9 1014.2 1014.1 -
20/09:00pm 8.0 6.2 8.0 100 0.0 W 7 13 4 7 1013.8 1013.7 -
20/08:30pm 8.2 6.6 8.2 100 0.0 WSW 6 9 3 5 1014.1 1014.0 -
20/08:00pm 8.2 6.4 8.1 99 0.0 W 7 13 4 7 1014.4 1014.3 -
20/07:30pm 8.3 5.8 8.2 99 0.0 WSW 11 19 6 10 1014.0 1013.9 -
20/07:00pm 8.6 6.2 8.5 99 0.0 SW 11 19 6 10 1014.2 1014.1 -
20/06:30pm 8.7 5.9 8.6 99 0.0 WNW 13 26 7 14 1014.3 1014.2 -
20/06:00pm 9.1 5.7 9.0 99 0.1 SW 17 28 9 15 1013.4 1013.3 -
20/05:30pm 9.6 6.7 9.5 99 0.1 SW 15 24 8 13 1013.8 1013.7 -
20/05:00pm 9.9 6.5 9.1 95 0.4 SW 17 28 9 15 1012.9 1012.8 -
20/04:30pm 11.2 7.1 7.7 79 1.7 WSW 19 30 10 16 1013.4 1013.3 -
20/04:00pm 11.9 8.2 9.5 85 1.2 SW 19 30 10 16 1012.6 1012.4 -
20/03:30pm 13.3 9.1 11.0 86 1.2 SW 24 41 13 22 1012.9 1012.8 -
20/02:30pm 16.5 12.8 8.0 57 4.4 SSW 17 26 9 14 1011.4 1011.3 -

Other formats

Comma delimited format used in spreadsheet applications
http://www.bom.gov.au/fwo/IDS60801/IDS60801.95667.axf

JavaScript Object Notation format (JSON) in row-major order
http://www.bom.gov.au/fwo/IDS60801/IDS60801.95667.json

Data quality

Most of these data are generated automatically and are frequently updated. Quality checks on data are not normally performed. It is possible for incorrect values to appear. Refer to information at About Latest Weather Observations and please check the disclaimer before using these data.